sensor_id;sensor_type;location;lat;lon;timestamp;pressure;altitude;pressure_sealevel;temperature;humidity
56831;BME280;42713;42.676;23.352;2023-04-25T00:00:57;94057.94;;;11.72;82.01
56831;BME280;42713;42.676;23.352;2023-04-25T00:03:22;94050.06;;;11.72;81.40
56831;BME280;42713;42.676;23.352;2023-04-25T00:05:50;94047.19;;;11.84;81.34
56831;BME280;42713;42.676;23.352;2023-04-25T00:08:17;94042.16;;;11.93;81.16
56831;BME280;42713;42.676;23.352;2023-04-25T00:10:42;94033.50;;;12.03;82.46
56831;BME280;42713;42.676;23.352;2023-04-25T00:13:08;94023.22;;;12.11;83.38
56831;BME280;42713;42.676;23.352;2023-04-25T00:15:33;94013.75;;;12.16;83.50
56831;BME280;42713;42.676;23.352;2023-04-25T00:18:01;94011.09;;;12.21;83.78
56831;BME280;42713;42.676;23.352;2023-04-25T00:20:26;93997.22;;;12.20;82.89
56831;BME280;42713;42.676;23.352;2023-04-25T00:22:52;93997.16;;;12.30;82.57
56831;BME280;42713;42.676;23.352;2023-04-25T00:25:20;93995.06;;;12.33;82.96
56831;BME280;42713;42.676;23.352;2023-04-25T00:27:47;93997.69;;;12.33;83.36
56831;BME280;42713;42.676;23.352;2023-04-25T00:30:12;94002.13;;;12.37;82.79
56831;BME280;42713;42.676;23.352;2023-04-25T00:32:38;93990.03;;;12.36;81.83
56831;BME280;42713;42.676;23.352;2023-04-25T00:35:04;93990.81;;;12.37;82.53
56831;BME280;42713;42.676;23.352;2023-04-25T00:37:29;93992.16;;;12.34;83.04
56831;BME280;42713;42.676;23.352;2023-04-25T00:39:57;93995.81;;;12.33;82.83
56831;BME280;42713;42.676;23.352;2023-04-25T00:42:22;93986.38;;;12.37;82.75
56831;BME280;42713;42.676;23.352;2023-04-25T00:44:48;93985.84;;;12.35;83.18
56831;BME280;42713;42.676;23.352;2023-04-25T00:47:15;93982.94;;;12.37;82.89
56831;BME280;42713;42.676;23.352;2023-04-25T00:49:40;93982.94;;;12.37;82.38
56831;BME280;42713;42.676;23.352;2023-04-25T00:52:06;93986.63;;;12.36;82.64
56831;BME280;42713;42.676;23.352;2023-04-25T00:54:31;93980.59;;;12.35;82.25
56831;BME280;42713;42.676;23.352;2023-04-25T00:56:57;93976.69;;;12.33;82.72
56831;BME280;42713;42.676;23.352;2023-04-25T00:59:23;93982.19;;;12.31;82.99
56831;BME280;42713;42.676;23.352;2023-04-25T01:01:49;93985.31;;;12.33;83.35
56831;BME280;42713;42.676;23.352;2023-04-25T01:04:15;93992.44;;;12.33;82.77
56831;BME280;42713;42.676;23.352;2023-04-25T01:06:40;93994.25;;;12.32;82.03
56831;BME280;42713;42.676;23.352;2023-04-25T01:09:06;93987.44;;;12.31;82.39
56831;BME280;42713;42.676;23.352;2023-04-25T01:11:32;93977.72;;;12.32;81.97
56831;BME280;42713;42.676;23.352;2023-04-25T01:13:58;93954.91;;;12.27;82.85
56831;BME280;42713;42.676;23.352;2023-04-25T01:16:24;93962.50;;;12.34;82.66
56831;BME280;42713;42.676;23.352;2023-04-25T01:18:49;93950.91;;;12.35;82.92
56831;BME280;42713;42.676;23.352;2023-04-25T01:21:16;93951.19;;;12.33;83.06
56831;BME280;42713;42.676;23.352;2023-04-25T01:23:42;93951.72;;;12.30;82.83
56831;BME280;42713;42.676;23.352;2023-04-25T01:26:09;93955.44;;;12.29;82.42
56831;BME280;42713;42.676;23.352;2023-04-25T01:28:35;93952.00;;;12.28;82.58
56831;BME280;42713;42.676;23.352;2023-04-25T01:31:01;93943.13;;;12.24;82.64
56831;BME280;42713;42.676;23.352;2023-04-25T01:33:27;93947.56;;;12.24;82.77
56831;BME280;42713;42.676;23.352;2023-04-25T01:35:52;93937.88;;;12.19;82.47
56831;BME280;42713;42.676;23.352;2023-04-25T01:38:18;93941.03;;;12.16;83.16
56831;BME280;42713;42.676;23.352;2023-04-25T01:40:45;93952.06;;;12.18;82.84
56831;BME280;42713;42.676;23.352;2023-04-25T01:43:11;93954.44;;;12.14;81.90
56831;BME280;42713;42.676;23.352;2023-04-25T01:45:43;93953.41;;;12.10;82.34
56831;BME280;42713;42.676;23.352;2023-04-25T01:48:09;93953.41;;;12.10;82.43
56831;BME280;42713;42.676;23.352;2023-04-25T01:50:35;93953.16;;;12.07;82.53
56831;BME280;42713;42.676;23.352;2023-04-25T01:53:01;93959.47;;;12.06;82.49
56831;BME280;42713;42.676;23.352;2023-04-25T01:55:27;93971.53;;;12.07;82.59
56831;BME280;42713;42.676;23.352;2023-04-25T01:57:53;93965.03;;;11.99;82.07
56831;BME280;42713;42.676;23.352;2023-04-25T02:00:18;93966.06;;;11.98;81.29
56831;BME280;42713;42.676;23.352;2023-04-25T02:02:44;93963.44;;;11.93;82.39
56831;BME280;42713;42.676;23.352;2023-04-25T02:05:09;93949.78;;;11.91;82.08
56831;BME280;42713;42.676;23.352;2023-04-25T02:07:35;93957.94;;;11.94;81.96
56831;BME280;42713;42.676;23.352;2023-04-25T02:10:00;93953.44;;;11.95;82.52
56831;BME280;42713;42.676;23.352;2023-04-25T02:12:27;93951.88;;;11.94;81.91
56831;BME280;42713;42.676;23.352;2023-04-25T02:14:53;93950.31;;;11.93;81.08
56831;BME280;42713;42.676;23.352;2023-04-25T02:17:18;93945.34;;;11.91;81.87
56831;BME280;42713;42.676;23.352;2023-04-25T02:19:44;93940.63;;;11.88;81.90
56831;BME280;42713;42.676;23.352;2023-04-25T02:22:10;93935.41;;;11.83;80.96
56831;BME280;42713;42.676;23.352;2023-04-25T02:24:35;93938.06;;;11.73;82.61
56831;BME280;42713;42.676;23.352;2023-04-25T02:27:01;93915.78;;;11.70;81.09
56831;BME280;42713;42.676;23.352;2023-04-25T02:29:26;93925.72;;;11.73;81.87
56831;BME280;42713;42.676;23.352;2023-04-25T02:31:52;93930.72;;;11.70;82.37
56831;BME280;42713;42.676;23.352;2023-04-25T02:34:17;93924.44;;;11.71;80.69
56831;BME280;42713;42.676;23.352;2023-04-25T02:36:43;93917.38;;;11.66;80.48
56831;BME280;42713;42.676;23.352;2023-04-25T02:39:08;93912.16;;;11.61;81.60
56831;BME280;42713;42.676;23.352;2023-04-25T02:41:33;93913.19;;;11.60;82.31
56831;BME280;42713;42.676;23.352;2023-04-25T02:43:59;93915.56;;;11.56;81.60
56831;BME280;42713;42.676;23.352;2023-04-25T02:46:24;93918.97;;;11.57;81.93
56831;BME280;42713;42.676;23.352;2023-04-25T02:48:50;93918.44;;;11.55;82.03
56831;BME280;42713;42.676;23.352;2023-04-25T02:51:15;93917.69;;;11.49;82.40
56831;BME280;42713;42.676;23.352;2023-04-25T02:53:42;93907.47;;;11.47;81.16
56831;BME280;42713;42.676;23.352;2023-04-25T02:56:07;93907.75;;;11.46;81.89
56831;BME280;42713;42.676;23.352;2023-04-25T02:58:32;93899.59;;;11.42;82.68
56831;BME280;42713;42.676;23.352;2023-04-25T03:00:58;93904.59;;;11.44;83.08
56831;BME280;42713;42.676;23.352;2023-04-25T03:03:24;93903.03;;;11.43;81.28
56831;BME280;42713;42.676;23.352;2023-04-25T03:05:50;93902.75;;;11.44;82.06
56831;BME280;42713;42.676;23.352;2023-04-25T03:08:16;93902.22;;;11.42;82.13
56831;BME280;42713;42.676;23.352;2023-04-25T03:10:42;93900.69;;;11.41;81.89
56831;BME280;42713;42.676;23.352;2023-04-25T03:13:07;93908.28;;;11.43;82.10
56831;BME280;42713;42.676;23.352;2023-04-25T03:15:33;93897.78;;;11.37;81.84
56831;BME280;42713;42.676;23.352;2023-04-25T03:17:58;93894.63;;;11.41;81.43
56831;BME280;42713;42.676;23.352;2023-04-25T03:20:24;93899.88;;;11.41;81.39
56831;BME280;42713;42.676;23.352;2023-04-25T03:22:49;93899.59;;;11.42;81.44
56831;BME280;42713;42.676;23.352;2023-04-25T03:25:15;93898.06;;;11.41;81.15
56831;BME280;42713;42.676;23.352;2023-04-25T03:27:41;93895.44;;;11.41;82.21
56831;BME280;42713;42.676;23.352;2023-04-25T03:30:07;93899.06;;;11.45;81.63
56831;BME280;42713;42.676;23.352;2023-04-25T03:32:34;93892.81;;;11.41;82.06
56831;BME280;42713;42.676;23.352;2023-04-25T03:35:00;93890.44;;;11.40;81.21
56831;BME280;42713;42.676;23.352;2023-04-25T03:37:25;93894.63;;;11.41;81.70
56831;BME280;42713;42.676;23.352;2023-04-25T03:39:51;93895.69;;;11.40;82.08
56831;BME280;42713;42.676;23.352;2023-04-25T03:42:16;93894.38;;;11.37;81.76
56831;BME280;42713;42.676;23.352;2023-04-25T03:44:42;93895.69;;;11.40;81.85
56831;BME280;42713;42.676;23.352;2023-04-25T03:47:08;93900.94;;;11.40;81.83
56831;BME280;42713;42.676;23.352;2023-04-25T03:49:34;93892.00;;;11.41;82.57
56831;BME280;42713;42.676;23.352;2023-04-25T03:51:59;93901.97;;;11.44;82.01
56831;BME280;42713;42.676;23.352;2023-04-25T03:54:25;93895.16;;;11.43;81.43
56831;BME280;42713;42.676;23.352;2023-04-25T03:56:50;93884.91;;;11.46;81.59
56831;BME280;42713;42.676;23.352;2023-04-25T03:59:16;93887.00;;;11.49;82.52
56831;BME280;42713;42.676;23.352;2023-04-25T04:01:41;93891.69;;;11.52;82.55
56831;BME280;42713;42.676;23.352;2023-04-25T04:04:07;93890.91;;;11.57;82.52
56831;BME280;42713;42.676;23.352;2023-04-25T04:06:32;93900.59;;;11.62;82.65
56831;BME280;42713;42.676;23.352;2023-04-25T04:08:58;93898.47;;;11.64;83.05
56831;BME280;42713;42.676;23.352;2023-04-25T04:11:23;93901.91;;;11.64;82.16
56831;BME280;42713;42.676;23.352;2023-04-25T04:13:49;93912.38;;;11.70;83.62
56831;BME280;42713;42.676;23.352;2023-04-25T04:16:14;93919.44;;;11.74;83.33
56831;BME280;42713;42.676;23.352;2023-04-25T04:18:40;93919.16;;;11.76;82.93
56831;BME280;42713;42.676;23.352;2023-04-25T04:21:05;93912.59;;;11.78;83.50
56831;BME280;42713;42.676;23.352;2023-04-25T04:23:31;93910.75;;;11.84;83.18
56831;BME280;42713;42.676;23.352;2023-04-25T04:25:56;93913.59;;;11.88;83.51
56831;BME280;42713;42.676;23.352;2023-04-25T04:28:22;93908.34;;;11.88;83.10
56831;BME280;42713;42.676;23.352;2023-04-25T04:30:48;93902.06;;;11.89;82.23
56831;BME280;42713;42.676;23.352;2023-04-25T04:33:16;93907.56;;;11.92;82.02
56831;BME280;42713;42.676;23.352;2023-04-25T04:35:44;93900.44;;;11.93;83.49
56831;BME280;42713;42.676;23.352;2023-04-25T04:38:09;93895.72;;;11.95;84.01
56831;BME280;42713;42.676;23.352;2023-04-25T04:40:36;93890.47;;;11.95;83.72
56831;BME280;42713;42.676;23.352;2023-04-25T04:43:03;93901.75;;;11.95;83.35
56831;BME280;42713;42.676;23.352;2023-04-25T04:45:28;93895.22;;;11.98;83.17
56831;BME280;42713;42.676;23.352;2023-04-25T04:47:54;93904.91;;;11.97;83.22
56831;BME280;42713;42.676;23.352;2023-04-25T04:50:20;93903.09;;;11.98;82.92
56831;BME280;42713;42.676;23.352;2023-04-25T04:52:46;93906.50;;;11.98;82.48
56831;BME280;42713;42.676;23.352;2023-04-25T04:55:12;93911.19;;;11.96;83.69
56831;BME280;42713;42.676;23.352;2023-04-25T04:57:37;93916.72;;;12.00;83.11
56831;BME280;42713;42.676;23.352;2023-04-25T05:00:04;93917.22;;;11.97;83.24
56831;BME280;42713;42.676;23.352;2023-04-25T05:02:33;93915.94;;;11.99;83.69
56831;BME280;42713;42.676;23.352;2023-04-25T05:04:59;93924.84;;;12.04;84.11
56831;BME280;42713;42.676;23.352;2023-04-25T05:07:24;93926.91;;;12.07;83.65
56831;BME280;42713;42.676;23.352;2023-04-25T05:09:50;93925.09;;;12.07;83.80
56831;BME280;42713;42.676;23.352;2023-04-25T05:12:15;93937.16;;;12.08;82.92
56831;BME280;42713;42.676;23.352;2023-04-25T05:14:41;93926.38;;;12.10;83.32
56831;BME280;42713;42.676;23.352;2023-04-25T05:17:06;93928.72;;;12.11;84.04
56831;BME280;42713;42.676;23.352;2023-04-25T05:19:33;93948.16;;;12.10;81.77
56831;BME280;42713;42.676;23.352;2023-04-25T05:21:59;93946.63;;;12.04;81.56
56831;BME280;42713;42.676;23.352;2023-04-25T05:24:24;93937.69;;;12.00;82.45
56831;BME280;42713;42.676;23.352;2023-04-25T05:26:50;93928.53;;;12.03;83.44
56831;BME280;42713;42.676;23.352;2023-04-25T05:29:15;93924.31;;;12.02;84.12
56831;BME280;42713;42.676;23.352;2023-04-25T05:31:41;93932.19;;;12.02;83.81
56831;BME280;42713;42.676;23.352;2023-04-25T05:34:06;93931.66;;;12.05;83.02
56831;BME280;42713;42.676;23.352;2023-04-25T05:36:32;93927.94;;;12.11;83.41
56831;BME280;42713;42.676;23.352;2023-04-25T05:38:58;93930.56;;;12.11;83.14
56831;BME280;42713;42.676;23.352;2023-04-25T05:41:23;93934.72;;;12.17;82.51
56831;BME280;42713;42.676;23.352;2023-04-25T05:43:48;93935.78;;;12.21;82.38
56831;BME280;42713;42.676;23.352;2023-04-25T05:46:15;93924.19;;;12.27;82.26
56831;BME280;42713;42.676;23.352;2023-04-25T05:48:42;93926.78;;;12.33;82.47
56831;BME280;42713;42.676;23.352;2023-04-25T05:51:08;93917.53;;;12.40;82.69
56831;BME280;42713;42.676;23.352;2023-04-25T05:53:34;93931.16;;;12.48;82.18
56831;BME280;42713;42.676;23.352;2023-04-25T05:56:00;93933.22;;;12.51;81.79
56831;BME280;42713;42.676;23.352;2023-04-25T05:58:25;93935.25;;;12.59;81.14
56831;BME280;42713;42.676;23.352;2023-04-25T06:00:51;93924.50;;;12.60;81.03
56831;BME280;42713;42.676;23.352;2023-04-25T06:03:16;93929.22;;;12.64;81.31
56831;BME280;42713;42.676;23.352;2023-04-25T06:05:42;93927.88;;;12.66;81.25
56831;BME280;42713;42.676;23.352;2023-04-25T06:08:08;93927.28;;;12.69;80.81
56831;BME280;42713;42.676;23.352;2023-04-25T06:10:34;93929.16;;;12.69;80.26
56831;BME280;42713;42.676;23.352;2023-04-25T06:12:59;93924.41;;;12.71;79.14
56831;BME280;42713;42.676;23.352;2023-04-25T06:15:25;93929.94;;;12.69;78.29
56831;BME280;42713;42.676;23.352;2023-04-25T06:17:50;93929.66;;;12.71;79.44
56831;BME280;42713;42.676;23.352;2023-04-25T06:20:16;93930.19;;;12.73;78.18
56831;BME280;42713;42.676;23.352;2023-04-25T06:22:42;93937.03;;;12.69;77.29
56831;BME280;42713;42.676;23.352;2023-04-25T06:25:08;93931.78;;;12.69;78.19
56831;BME280;42713;42.676;23.352;2023-04-25T06:27:34;93938.09;;;12.68;77.44
56831;BME280;42713;42.676;23.352;2023-04-25T06:29:59;93948.38;;;12.64;77.55
56831;BME280;42713;42.676;23.352;2023-04-25T06:32:25;93946.03;;;12.63;77.69
56831;BME280;42713;42.676;23.352;2023-04-25T06:34:52;93934.41;;;12.69;76.92
56831;BME280;42713;42.676;23.352;2023-04-25T06:37:18;93932.00;;;12.72;77.38
56831;BME280;42713;42.676;23.352;2023-04-25T06:39:44;93932.00;;;12.77;77.52
56831;BME280;42713;42.676;23.352;2023-04-25T06:42:09;93938.75;;;12.84;76.93
56831;BME280;42713;42.676;23.352;2023-04-25T06:44:35;93937.66;;;12.90;76.44
56831;BME280;42713;42.676;23.352;2023-04-25T06:47:01;93948.13;;;12.95;76.38
56831;BME280;42713;42.676;23.352;2023-04-25T06:49:26;93945.19;;;13.02;75.96
56831;BME280;42713;42.676;23.352;2023-04-25T06:51:51;93952.75;;;13.08;74.98
56831;BME280;42713;42.676;23.352;2023-04-25T06:54:17;93934.59;;;13.12;74.84
56831;BME280;42713;42.676;23.352;2023-04-25T06:56:42;93941.88;;;13.20;75.15
56831;BME280;42713;42.676;23.352;2023-04-25T06:59:08;93945.50;;;13.24;74.55
56831;BME280;42713;42.676;23.352;2023-04-25T07:01:34;93944.94;;;13.28;73.76
56831;BME280;42713;42.676;23.352;2023-04-25T07:04:00;93939.09;;;13.36;74.99
56831;BME280;42713;42.676;23.352;2023-04-25T07:06:26;93929.84;;;13.38;72.92
56831;BME280;42713;42.676;23.352;2023-04-25T07:08:53;93943.00;;;13.44;72.91
56831;BME280;42713;42.676;23.352;2023-04-25T07:11:18;93943.97;;;13.48;73.38
56831;BME280;42713;42.676;23.352;2023-04-25T07:13:43;93946.34;;;13.49;73.47
56831;BME280;42713;42.676;23.352;2023-04-25T07:16:09;93943.16;;;13.52;72.85
56831;BME280;42713;42.676;23.352;2023-04-25T07:18:34;93942.38;;;13.52;72.48
56831;BME280;42713;42.676;23.352;2023-04-25T07:21:00;93942.38;;;13.52;72.74
56831;BME280;42713;42.676;23.352;2023-04-25T07:23:25;93941.31;;;13.53;73.13
56831;BME280;42713;42.676;23.352;2023-04-25T07:25:51;93936.28;;;13.57;72.92
56831;BME280;42713;42.676;23.352;2023-04-25T07:28:16;93936.50;;;13.60;73.13
56831;BME280;42713;42.676;23.352;2023-04-25T07:30:43;93933.81;;;13.65;72.99
56831;BME280;42713;42.676;23.352;2023-04-25T07:33:08;93938.72;;;13.72;72.15
56831;BME280;42713;42.676;23.352;2023-04-25T07:35:34;93933.13;;;13.79;71.51
56831;BME280;42713;42.676;23.352;2023-04-25T07:38:00;93927.75;;;13.89;71.46
56831;BME280;42713;42.676;23.352;2023-04-25T07:40:25;93928.41;;;14.00;70.97
56831;BME280;42713;42.676;23.352;2023-04-25T07:42:51;93934.88;;;14.08;71.28
56831;BME280;42713;42.676;23.352;2023-04-25T07:45:17;93925.56;;;14.15;71.87
56831;BME280;42713;42.676;23.352;2023-04-25T07:47:42;93928.84;;;14.26;71.84
56831;BME280;42713;42.676;23.352;2023-04-25T07:50:08;93924.56;;;14.30;70.67
56831;BME280;42713;42.676;23.352;2023-04-25T07:52:34;93931.13;;;14.33;70.16
56831;BME280;42713;42.676;23.352;2023-04-25T07:55:00;93927.63;;;14.38;70.35
56831;BME280;42713;42.676;23.352;2023-04-25T07:57:25;93932.34;;;14.41;68.67
56831;BME280;42713;42.676;23.352;2023-04-25T07:59:51;93922.81;;;14.45;68.59
56831;BME280;42713;42.676;23.352;2023-04-25T08:02:16;93918.50;;;14.49;68.82
56831;BME280;42713;42.676;23.352;2023-04-25T08:04:41;93916.88;;;14.53;68.39
56831;BME280;42713;42.676;23.352;2023-04-25T08:07:07;93917.09;;;14.57;67.97
56831;BME280;42713;42.676;23.352;2023-04-25T08:09:32;93915.44;;;14.61;67.23
56831;BME280;42713;42.676;23.352;2023-04-25T08:12:02;93923.28;;;14.66;67.51
56831;BME280;42713;42.676;23.352;2023-04-25T08:14:29;93919.50;;;14.72;67.03
56831;BME280;42713;42.676;23.352;2023-04-25T08:16:56;93912.50;;;14.82;66.30
56831;BME280;42713;42.676;23.352;2023-04-25T08:19:22;93915.84;;;14.87;66.21
56831;BME280;42713;42.676;23.352;2023-04-25T08:21:47;93911.28;;;14.93;65.87
56831;BME280;42713;42.676;23.352;2023-04-25T08:24:13;93903.00;;;15.00;65.06
56831;BME280;42713;42.676;23.352;2023-04-25T08:26:38;93889.94;;;15.08;65.29
56831;BME280;42713;42.676;23.352;2023-04-25T08:29:04;93896.09;;;15.18;65.32
56831;BME280;42713;42.676;23.352;2023-04-25T08:31:30;93898.56;;;15.28;64.18
56831;BME280;42713;42.676;23.352;2023-04-25T08:33:56;93883.63;;;15.37;62.74
56831;BME280;42713;42.676;23.352;2023-04-25T08:36:21;93887.50;;;15.40;60.17
56831;BME280;42713;42.676;23.352;2023-04-25T08:38:47;93891.31;;;15.34;61.08
56831;BME280;42713;42.676;23.352;2023-04-25T08:41:13;93903.22;;;15.31;61.77
56831;BME280;42713;42.676;23.352;2023-04-25T08:43:42;93896.28;;;15.21;61.16
56831;BME280;42713;42.676;23.352;2023-04-25T08:46:09;93907.72;;;15.17;61.24
56831;BME280;42713;42.676;23.352;2023-04-25T08:48:35;93917.44;;;15.02;61.80
56831;BME280;42713;42.676;23.352;2023-04-25T08:51:02;93919.66;;;14.81;61.76
56831;BME280;42713;42.676;23.352;2023-04-25T08:53:32;93911.88;;;14.52;68.91
56831;BME280;42713;42.676;23.352;2023-04-25T08:56:01;93919.72;;;14.38;70.55
56831;BME280;42713;42.676;23.352;2023-04-25T08:58:28;93911.31;;;14.36;70.45
56831;BME280;42713;42.676;23.352;2023-04-25T09:00:53;93904.41;;;14.40;71.45
56831;BME280;42713;42.676;23.352;2023-04-25T09:03:19;93905.03;;;14.51;71.37
56831;BME280;42713;42.676;23.352;2023-04-25T09:05:44;93891.88;;;14.70;71.97
56831;BME280;42713;42.676;23.352;2023-04-25T09:08:10;93891.38;;;14.68;73.07
56831;BME280;42713;42.676;23.352;2023-04-25T09:10:36;93894.66;;;14.78;72.44
56831;BME280;42713;42.676;23.352;2023-04-25T09:15:27;93880.66;;;15.11;70.07
56831;BME280;42713;42.676;23.352;2023-04-25T09:17:56;93872.25;;;15.23;67.95
56831;BME280;42713;42.676;23.352;2023-04-25T09:20:22;93874.31;;;15.40;67.02
56831;BME280;42713;42.676;23.352;2023-04-25T09:22:47;93883.50;;;15.56;67.65
56831;BME280;42713;42.676;23.352;2023-04-25T09:25:13;93871.84;;;15.71;66.76
56831;BME280;42713;42.676;23.352;2023-04-25T09:27:52;93863.41;;;15.83;65.29
56831;BME280;42713;42.676;23.352;2023-04-25T09:30:19;93869.41;;;15.89;63.60
56831;BME280;42713;42.676;23.352;2023-04-25T09:32:56;93870.97;;;15.90;63.71
56831;BME280;42713;42.676;23.352;2023-04-25T09:35:26;93873.34;;;15.92;63.29
56831;BME280;42713;42.676;23.352;2023-04-25T09:37:51;93872.25;;;15.93;62.99
56831;BME280;42713;42.676;23.352;2023-04-25T09:40:17;93866.97;;;15.93;62.52
56831;BME280;42713;42.676;23.352;2023-04-25T09:42:44;93874.00;;;15.97;62.66
56831;BME280;42713;42.676;23.352;2023-04-25T09:45:12;93868.03;;;16.06;65.22
56831;BME280;42713;42.676;23.352;2023-04-25T09:47:40;93859.09;;;16.15;63.90
56831;BME280;42713;42.676;23.352;2023-04-25T09:50:14;93863.84;;;16.27;63.27
56831;BME280;42713;42.676;23.352;2023-04-25T09:52:40;93852.09;;;16.33;60.91
56831;BME280;42713;42.676;23.352;2023-04-25T09:55:06;93855.09;;;16.41;59.97
56831;BME280;42713;42.676;23.352;2023-04-25T09:57:33;93857.59;;;16.46;59.93
56831;BME280;42713;42.676;23.352;2023-04-25T10:00:00;93867.00;;;16.52;59.67
56831;BME280;42713;42.676;23.352;2023-04-25T10:02:27;93870.28;;;16.58;59.26
56831;BME280;42713;42.676;23.352;2023-04-25T10:20:07;93873.47;;;16.69;58.90
56831;BME280;42713;42.676;23.352;2023-04-25T10:22:38;93899.47;;;16.53;58.39
56831;BME280;42713;42.676;23.352;2023-04-25T10:25:05;93891.59;;;16.16;57.69
56831;BME280;42713;42.676;23.352;2023-04-25T10:27:31;93863.44;;;15.97;55.74
56831;BME280;42713;42.676;23.352;2023-04-25T10:30:02;93861.97;;;15.91;58.93
56831;BME280;42713;42.676;23.352;2023-04-25T10:32:32;93849.31;;;16.02;61.08
56831;BME280;42713;42.676;23.352;2023-04-25T10:35:29;93848.53;;;16.15;58.38
56831;BME280;42713;42.676;23.352;2023-04-25T10:38:14;93838.75;;;16.39;57.90
56831;BME280;42713;42.676;23.352;2023-04-25T10:40:39;93849.91;;;16.58;58.83
56831;BME280;42713;42.676;23.352;2023-04-25T10:45:57;93866.66;;;16.08;57.96
56831;BME280;42713;42.676;23.352;2023-04-25T10:48:25;93861.88;;;15.96;58.21
56831;BME280;42713;42.676;23.352;2023-04-25T10:51:10;93859.31;;;16.05;60.00
56831;BME280;42713;42.676;23.352;2023-04-25T10:53:36;93864.41;;;16.01;59.00
56831;BME280;42713;42.676;23.352;2023-04-25T10:58:47;93854.88;;;16.14;58.69
56831;BME280;42713;42.676;23.352;2023-04-25T11:01:14;93860.19;;;16.00;55.95
56831;BME280;42713;42.676;23.352;2023-04-25T11:03:41;93849.56;;;15.92;55.79
56831;BME280;42713;42.676;23.352;2023-04-25T11:06:50;93848.09;;;15.71;54.29
56831;BME280;42713;42.676;23.352;2023-04-25T11:09:23;93840.38;;;15.75;55.06
56831;BME280;42713;42.676;23.352;2023-04-25T11:11:59;93830.41;;;15.86;54.71
56831;BME280;42713;42.676;23.352;2023-04-25T11:14:25;93823.41;;;16.04;54.77
56831;BME280;42713;42.676;23.352;2023-04-25T11:16:56;93830.78;;;16.30;56.42
56831;BME280;42713;42.676;23.352;2023-04-25T11:19:22;93814.84;;;16.21;52.37
56831;BME280;42713;42.676;23.352;2023-04-25T11:21:47;93817.31;;;16.17;48.63
56831;BME280;42713;42.676;23.352;2023-04-25T11:24:13;93838.00;;;16.01;50.33
56831;BME280;42713;42.676;23.352;2023-04-25T11:26:43;93847.19;;;16.04;55.18
56831;BME280;42713;42.676;23.352;2023-04-25T11:29:12;93839.75;;;16.06;56.74
56831;BME280;42713;42.676;23.352;2023-04-25T11:31:38;93844.63;;;16.13;57.71
56831;BME280;42713;42.676;23.352;2023-04-25T11:34:04;93842.94;;;16.17;58.17
56831;BME280;42713;42.676;23.352;2023-04-25T11:36:29;93829.72;;;16.17;58.12
56831;BME280;42713;42.676;23.352;2023-04-25T11:38:55;93838.31;;;16.23;57.86
56831;BME280;42713;42.676;23.352;2023-04-25T11:41:21;93844.09;;;16.25;57.18
56831;BME280;42713;42.676;23.352;2023-04-25T11:43:48;93852.59;;;16.22;56.51
56831;BME280;42713;42.676;23.352;2023-04-25T11:46:14;93856.63;;;16.19;56.60
56831;BME280;42713;42.676;23.352;2023-04-25T11:48:41;93865.56;;;16.09;54.05
56831;BME280;42713;42.676;23.352;2023-04-25T11:51:07;93889.38;;;15.81;51.05
56831;BME280;42713;42.676;23.352;2023-04-25T11:53:33;93867.59;;;15.48;52.62
56831;BME280;42713;42.676;23.352;2023-04-25T11:55:59;93856.03;;;15.30;57.33
56831;BME280;42713;42.676;23.352;2023-04-25T11:58:25;93842.25;;;15.05;56.78
56831;BME280;42713;42.676;23.352;2023-04-25T12:00:51;93847.03;;;15.03;57.44
56831;BME280;42713;42.676;23.352;2023-04-25T12:03:19;93847.44;;;15.10;58.57
56831;BME280;42713;42.676;23.352;2023-04-25T12:05:46;93833.19;;;15.25;59.54
56831;BME280;42713;42.676;23.352;2023-04-25T12:08:13;93822.63;;;15.39;57.05
56831;BME280;42713;42.676;23.352;2023-04-25T12:10:40;93823.44;;;15.76;57.73
56831;BME280;42713;42.676;23.352;2023-04-25T12:13:23;93827.84;;;15.95;55.97
56831;BME280;42713;42.676;23.352;2023-04-25T12:15:49;93819.09;;;16.08;54.66
56831;BME280;42713;42.676;23.352;2023-04-25T12:18:18;93832.19;;;16.13;53.22
56831;BME280;42713;42.676;23.352;2023-04-25T12:20:44;93825.91;;;16.23;53.80
56831;BME280;42713;42.676;23.352;2023-04-25T12:23:10;93812.78;;;16.18;53.16
56831;BME280;42713;42.676;23.352;2023-04-25T12:25:44;93810.09;;;16.09;53.09
56831;BME280;42713;42.676;23.352;2023-04-25T12:28:15;93807.56;;;16.27;53.97
56831;BME280;42713;42.676;23.352;2023-04-25T12:31:00;93821.50;;;16.41;54.68
56831;BME280;42713;42.676;23.352;2023-04-25T12:33:34;93815.63;;;16.44;52.71
56831;BME280;42713;42.676;23.352;2023-04-25T12:36:02;93820.00;;;16.49;51.55
56831;BME280;42713;42.676;23.352;2023-04-25T12:38:36;93867.50;;;16.17;55.54
56831;BME280;42713;42.676;23.352;2023-04-25T12:41:02;93883.09;;;14.55;66.16
56831;BME280;42713;42.676;23.352;2023-04-25T12:43:27;93879.63;;;13.40;71.14
56831;BME280;42713;42.676;23.352;2023-04-25T12:45:54;93880.84;;;12.94;75.01
56831;BME280;42713;42.676;23.352;2023-04-25T12:48:20;93898.75;;;12.57;78.16
56831;BME280;42713;42.676;23.352;2023-04-25T12:50:47;93889.75;;;12.34;79.04
56831;BME280;42713;42.676;23.352;2023-04-25T12:53:18;93893.53;;;12.18;79.26
56831;BME280;42713;42.676;23.352;2023-04-25T12:55:44;93889.28;;;12.27;81.92
56831;BME280;42713;42.676;23.352;2023-04-25T12:58:17;93889.56;;;12.20;81.09
56831;BME280;42713;42.676;23.352;2023-04-25T13:00:44;93899.78;;;12.27;83.24
56831;BME280;42713;42.676;23.352;2023-04-25T13:03:10;93890.03;;;12.33;83.34
56831;BME280;42713;42.676;23.352;2023-04-25T13:05:38;93897.84;;;12.38;81.35
56831;BME280;42713;42.676;23.352;2023-04-25T13:08:04;93902.81;;;12.39;80.05
56831;BME280;42713;42.676;23.352;2023-04-25T13:10:30;93907.00;;;12.45;81.06